Time;durP1;ratioP1;P1;durP2;ratioP2;P2;SDS_P1;SDS_P2;PMS_P1;PMS_P2;Temp;Humidity;BMP_temperature;BMP_pressure;BME280_temperature;BME280_humidity;BME280_pressure;Samples;Min_cycle;Max_cycle;Signal;HPM_P1;HPM_P2
2022/09/15 00:00:20;;;;;;;5.43;3.60;;;13.30;99.90;;;;;;5005673;28;20044;-77
2022/09/15 00:02:46;;;;;;;5.75;3.90;;;13.20;99.90;;;;;;5006798;28;20061;-80
2022/09/15 00:05:12;;;;;;;6.10;3.70;;;13.20;99.90;;;;;;5024237;28;20036;-78
2022/09/15 00:07:37;;;;;;;4.88;3.22;;;13.20;99.90;;;;;;5016275;28;20036;-78
2022/09/15 00:10:05;;;;;;;5.90;3.65;;;13.30;99.90;;;;;;5024731;28;20048;-78
2022/09/15 00:12:31;;;;;;;4.35;3.20;;;13.30;99.90;;;;;;5023472;28;20040;-80
2022/09/15 00:14:57;;;;;;;4.88;3.13;;;13.30;99.90;;;;;;5004570;28;20025;-79
2022/09/15 00:17:22;;;;;;;6.28;3.50;;;13.30;99.90;;;;;;5023968;28;20017;-78
2022/09/15 00:19:48;;;;;;;3.83;3.28;;;13.50;99.90;;;;;;5006251;28;20470;-78
2022/09/15 00:22:14;;;;;;;4.22;2.88;;;13.50;99.90;;;;;;5023528;28;20033;-78
2022/09/15 00:24:40;;;;;;;3.67;2.65;;;13.50;99.90;;;;;;5023942;28;20030;-78
2022/09/15 00:27:06;;;;;;;5.30;3.70;;;13.50;99.90;;;;;;5023498;28;20466;-78
2022/09/15 00:29:32;;;;;;;5.10;3.15;;;13.60;99.90;;;;;;5006109;28;20025;-78
2022/09/15 00:31:58;;;;;;;4.05;2.88;;;13.60;99.90;;;;;;5006197;28;20049;-79
2022/09/15 00:34:24;;;;;;;6.38;3.03;;;13.70;99.90;;;;;;5023068;28;20026;-78
2022/09/15 00:36:50;;;;;;;4.18;2.88;;;13.60;99.90;;;;;;5005166;28;20560;-78
2022/09/15 00:39:16;;;;;;;6.03;4.28;;;13.70;99.90;;;;;;5007225;28;20047;-77
2022/09/15 00:41:41;;;;;;;5.13;4.07;;;13.60;99.90;;;;;;5022931;28;20444;-78
2022/09/15 00:44:15;;;;;;;6.13;3.78;;;13.60;99.90;;;;;;5024097;28;20072;-78
2022/09/15 00:46:44;;;;;;;4.95;3.63;;;13.70;99.90;;;;;;4991947;28;20042;-79
2022/09/15 00:49:30;;;;;;;6.80;4.50;;;13.80;99.90;;;;;;5006944;28;20025;-79
2022/09/15 00:52:16;;;;;;;9.52;6.13;;;13.80;99.90;;;;;;5022413;28;20121;-81
2022/09/15 00:54:50;;;;;;;8.05;5.32;;;13.90;99.90;;;;;;5005009;28;20379;-80
2022/09/15 00:57:25;;;;;;;9.32;5.60;;;13.90;99.90;;;;;;5005639;28;20482;-79
2022/09/15 00:59:52;;;;;;;14.35;9.25;;;13.90;99.90;;;;;;5022984;28;20025;-79
2022/09/15 01:02:21;;;;;;;14.60;9.10;;;13.90;99.90;;;;;;5006135;28;20033;-79
2022/09/15 01:04:49;;;;;;;13.23;9.10;;;13.90;99.90;;;;;;5004427;28;20401;-78
2022/09/15 01:07:26;;;;;;;16.35;11.18;;;14.00;99.90;;;;;;5020370;28;20033;-77
2022/09/15 01:09:55;;;;;;;16.20;11.57;;;13.90;99.90;;;;;;5005308;28;20041;-79
2022/09/15 01:12:24;;;;;;;10.98;8.85;;;14.00;99.90;;;;;;5022988;28;20029;-79
2022/09/15 01:14:50;;;;;;;15.68;10.80;;;14.00;99.90;;;;;;5006427;28;20034;-78
2022/09/15 01:17:49;;;;;;;20.17;12.90;;;14.00;99.90;;;;;;5004526;28;20029;-80
2022/09/15 01:20:37;;;;;;;21.77;15.43;;;14.10;99.90;;;;;;4989056;28;20112;-78
2022/09/15 01:23:05;;;;;;;17.67;12.82;;;14.10;99.90;;;;;;5002616;28;20060;-79
2022/09/15 01:26:05;;;;;;;19.73;12.75;;;14.10;99.90;;;;;;5005094;28;20117;-78
2022/09/15 01:29:09;;;;;;;21.70;15.10;;;14.10;99.90;;;;;;4988108;28;20026;-78
2022/09/15 01:35:21;;;;;;;18.67;12.30;;;14.10;99.90;;;;;;5009019;28;20033;-78
2022/09/15 01:37:57;;;;;;;21.08;12.40;;;14.10;99.90;;;;;;4977734;28;20734;-79
2022/09/15 01:40:27;;;;;;;16.83;11.65;;;14.20;99.90;;;;;;5004503;28;20079;-79
2022/09/15 01:42:54;;;;;;;;;;;14.10;99.90;;;;;;5023478;28;20087;-78
2022/09/15 01:45:28;;;;;;;14.85;9.60;;;14.10;99.90;;;;;;5003611;28;19959;-78
2022/09/15 01:47:57;;;;;;;16.65;12.65;;;14.10;99.90;;;;;;5022123;28;20036;-79
2022/09/15 01:50:31;;;;;;;20.10;14.45;;;14.20;99.90;;;;;;5024437;28;20030;-78
2022/09/15 01:53:01;;;;;;;14.52;11.27;;;14.10;99.90;;;;;;5026177;28;20033;-78
2022/09/15 01:55:47;;;;;;;16.15;12.07;;;14.10;99.90;;;;;;5025198;28;20075;-78
2022/09/15 01:58:12;;;;;;;13.27;10.10;;;14.20;99.90;;;;;;5007546;28;20029;-78
2022/09/15 02:00:43;;;;;;;14.95;10.45;;;14.10;99.90;;;;;;5002423;28;20025;-77
2022/09/15 02:03:57;;;;;;;14.73;12.02;;;14.10;99.90;;;;;;5031810;28;20045;-78
2022/09/15 02:06:43;;;;;;;14.00;9.18;;;14.10;99.90;;;;;;4905910;29;20055;-78
2022/09/15 02:09:14;;;;;;;13.18;9.02;;;14.10;99.90;;;;;;4908408;29;20036;-81
2022/09/15 02:11:51;;;;;;;10.88;7.95;;;14.00;99.90;;;;;;4907499;29;20044;-78
2022/09/15 02:14:47;;;;;;;10.27;8.02;;;14.10;99.90;;;;;;4890168;29;20031;-78
2022/09/15 02:17:17;;;;;;;10.55;7.47;;;14.00;99.90;;;;;;4905141;29;20044;-78
2022/09/15 02:19:51;;;;;;;13.68;9.05;;;14.00;99.90;;;;;;4907367;29;20549;-78
2022/09/15 02:22:27;;;;;;;11.35;7.57;;;14.10;99.90;;;;;;4890732;29;20393;-79
2022/09/15 02:25:04;;;;;;;12.60;8.68;;;14.10;99.90;;;;;;4907752;29;20055;-78
2022/09/15 02:27:36;;;;;;;13.95;10.00;;;14.10;99.90;;;;;;4907476;29;20048;-80
2022/09/15 02:30:08;;;;;;;15.57;10.10;;;14.10;99.90;;;;;;4891972;29;20049;-79
2022/09/15 02:32:36;;;;;;;12.43;10.05;;;14.10;99.90;;;;;;4905121;29;20458;-78
2022/09/15 02:35:05;;;;;;;13.23;9.00;;;14.10;99.90;;;;;;4908435;29;20025;-79
2022/09/15 02:37:33;;;;;;;12.25;9.60;;;14.10;99.90;;;;;;4891404;29;20044;-79
2022/09/15 02:40:00;;;;;;;14.57;10.85;;;14.10;99.90;;;;;;4889859;29;20442;-79
2022/09/15 02:42:28;;;;;;;15.75;11.32;;;14.20;99.90;;;;;;4905675;28;20047;-81
2022/09/15 02:44:54;;;;;;;11.90;7.72;;;14.20;99.90;;;;;;5026081;28;20048;-78
2022/09/15 02:47:20;;;;;;;11.05;7.90;;;14.10;99.90;;;;;;5007193;28;20121;-79
2022/09/15 02:49:45;;;;;;;7.07;5.65;;;14.10;99.90;;;;;;5024040;28;20129;-79
2022/09/15 02:52:11;;;;;;;10.65;8.50;;;14.10;99.90;;;;;;5025659;28;20036;-79
2022/09/15 02:54:37;;;;;;;11.80;10.18;;;14.10;99.90;;;;;;4990885;28;20038;-78
2022/09/15 02:57:03;;;;;;;11.55;8.50;;;14.00;99.90;;;;;;5007374;28;20053;-77
2022/09/15 03:00:11;;;;;;;13.23;8.98;;;14.00;99.90;;;;;;5008561;28;20108;-78
2022/09/15 03:02:14;;;;;;;11.13;7.90;;;14.00;99.90;;;;;;5023477;28;20061;-80
2022/09/15 03:04:39;;;;;;;10.27;7.45;;;14.00;99.90;;;;;;5025345;28;20034;-79
2022/09/15 03:07:05;;;;;;;12.88;8.90;;;13.90;99.90;;;;;;5024635;28;20071;-79
2022/09/15 03:09:31;;;;;;;11.50;8.30;;;13.90;99.90;;;;;;5007113;28;20455;-78
2022/09/15 03:11:56;;;;;;;13.27;8.05;;;13.80;99.90;;;;;;5007914;28;20133;-79
2022/09/15 03:14:22;;;;;;;13.15;9.82;;;13.90;99.90;;;;;;5026998;28;20079;-80
2022/09/15 03:16:48;;;;;;;9.25;6.63;;;13.90;99.90;;;;;;5024413;28;20026;-79
2022/09/15 03:19:14;;;;;;;8.07;6.25;;;13.80;99.90;;;;;;5024853;28;20036;-78
2022/09/15 03:21:39;;;;;;;9.32;6.78;;;13.80;99.90;;;;;;5024298;28;20033;-80
2022/09/15 03:24:05;;;;;;;11.43;7.53;;;13.70;99.90;;;;;;5006445;28;20033;-78
2022/09/15 03:26:31;;;;;;;10.38;8.93;;;13.70;99.90;;;;;;5023423;28;20030;-78
2022/09/15 03:28:56;;;;;;;10.13;7.18;;;13.70;99.90;;;;;;5024329;28;20018;-78
2022/09/15 03:31:22;;;;;;;9.02;7.25;;;13.60;99.90;;;;;;5022615;28;20441;-80
2022/09/15 03:33:48;;;;;;;10.50;7.15;;;13.60;99.90;;;;;;5002452;28;20025;-80
2022/09/15 03:36:13;;;;;;;6.53;4.88;;;13.60;99.90;;;;;;4990674;28;20070;-78
2022/09/15 03:38:39;;;;;;;6.88;4.32;;;13.60;99.90;;;;;;4991293;28;20030;-78
2022/09/15 03:41:09;;;;;;;5.65;3.45;;;13.60;99.90;;;;;;4990812;28;20171;-79
2022/09/15 03:43:35;;;;;;;4.47;3.83;;;13.60;99.90;;;;;;5024504;28;20037;-78
2022/09/15 03:46:05;;;;;;;4.22;2.75;;;13.60;99.90;;;;;;5005458;28;20030;-78
2022/09/15 03:48:33;;;;;;;5.95;3.80;;;13.60;99.90;;;;;;5021787;28;20040;-78
2022/09/15 03:51:00;;;;;;;4.68;3.10;;;13.60;99.90;;;;;;5025314;28;20497;-78
2022/09/15 03:53:26;;;;;;;6.07;3.65;;;13.70;99.90;;;;;;5023482;28;20088;-81
2022/09/15 03:55:51;;;;;;;7.55;4.15;;;13.60;99.90;;;;;;5006843;28;20029;-79
2022/09/15 03:58:17;;;;;;;7.43;4.25;;;13.60;99.90;;;;;;5023337;28;20056;-81
2022/09/15 04:00:44;;;;;;;7.30;3.45;;;13.70;99.90;;;;;;5023476;28;20267;-78
2022/09/15 04:03:11;;;;;;;5.72;3.15;;;13.60;99.90;;;;;;5004142;28;20045;-79
2022/09/15 04:05:37;;;;;;;4.93;3.35;;;13.70;99.90;;;;;;4988220;28;20839;-80
2022/09/15 04:08:03;;;;;;;4.72;2.78;;;13.70;99.90;;;;;;5039737;28;20033;-79
2022/09/15 04:10:29;;;;;;;4.13;2.22;;;13.70;99.90;;;;;;5004368;28;20133;-79
2022/09/15 04:12:55;;;;;;;3.38;2.30;;;13.70;99.90;;;;;;5003998;28;20144;-78
2022/09/15 04:15:22;;;;;;;2.60;1.20;;;13.80;99.90;;;;;;5007145;28;20247;-78
2022/09/15 04:17:48;;;;;;;4.07;2.10;;;13.80;99.90;;;;;;5006205;28;20549;-80
2022/09/15 04:20:16;;;;;;;4.20;2.42;;;13.80;99.90;;;;;;5021127;28;20036;-78
2022/09/15 04:22:42;;;;;;;6.57;3.35;;;13.80;99.90;;;;;;5025246;28;20506;-80
2022/09/15 04:25:08;;;;;;;5.72;2.88;;;13.80;99.90;;;;;;5023721;28;20044;-79
2022/09/15 04:27:35;;;;;;;6.05;3.03;;;13.80;99.90;;;;;;4991660;28;20029;-81
2022/09/15 04:30:01;;;;;;;4.20;3.72;;;13.80;99.90;;;;;;5022659;28;20030;-80
2022/09/15 04:32:28;;;;;;;6.35;2.92;;;13.80;99.90;;;;;;5005883;28;20075;-79
2022/09/15 04:34:54;;;;;;;10.57;5.00;;;13.80;99.90;;;;;;5023549;28;20521;-79
2022/09/15 04:37:20;;;;;;;7.47;3.90;;;13.80;99.90;;;;;;4989344;28;20493;-78
2022/09/15 04:39:46;;;;;;;5.32;3.47;;;13.80;99.90;;;;;;5024396;28;20124;-78
2022/09/15 04:42:12;;;;;;;3.78;2.42;;;13.80;99.90;;;;;;5022909;28;20101;-80
2022/09/15 04:44:37;;;;;;;3.40;1.90;;;13.80;99.90;;;;;;5022851;28;20060;-79
2022/09/15 04:47:03;;;;;;;3.55;2.00;;;13.80;99.90;;;;;;5023299;28;20509;-79
2022/09/15 04:49:30;;;;;;;3.40;1.30;;;13.80;99.90;;;;;;4989442;28;20070;-79
2022/09/15 04:51:55;;;;;;;3.45;1.60;;;13.80;99.90;;;;;;5017213;28;20033;-81
2022/09/15 04:54:21;;;;;;;4.25;1.60;;;13.80;99.90;;;;;;5004321;28;20033;-78
2022/09/15 04:56:47;;;;;;;2.30;1.40;;;13.80;99.90;;;;;;5001588;28;20075;-79
2022/09/15 04:59:18;;;;;;;2.85;1.80;;;13.80;99.90;;;;;;5000156;28;20037;-79
2022/09/15 05:01:44;;;;;;;4.25;1.25;;;13.80;99.90;;;;;;5005162;28;20038;-79
2022/09/15 05:04:10;;;;;;;3.17;1.13;;;13.80;99.90;;;;;;4988065;28;20033;-78
2022/09/15 05:06:36;;;;;;;4.72;1.52;;;13.80;99.90;;;;;;5005710;28;20083;-79
2022/09/15 05:09:04;;;;;;;4.00;1.50;;;13.80;99.90;;;;;;5005021;28;20083;-81
2022/09/15 05:11:31;;;;;;;3.22;1.30;;;13.80;99.90;;;;;;5023854;28;20147;-81
2022/09/15 05:13:58;;;;;;;2.70;1.38;;;13.90;99.90;;;;;;5006009;28;20041;-80
2022/09/15 05:16:28;;;;;;;3.78;1.80;;;13.80;99.90;;;;;;4990590;28;20903;-81
2022/09/15 05:18:57;;;;;;;3.00;1.60;;;13.80;99.90;;;;;;5004622;28;20485;-79
2022/09/15 05:21:23;;;;;;;2.78;1.52;;;13.80;99.90;;;;;;5021663;28;20033;-81
2022/09/15 05:23:50;;;;;;;2.35;1.40;;;13.80;99.90;;;;;;5006247;28;20038;-81
2022/09/15 05:26:22;;;;;;;3.47;1.85;;;13.80;99.90;;;;;;5004369;28;20036;-79
2022/09/15 05:28:48;;;;;;;3.80;1.67;;;13.80;99.90;;;;;;5010785;28;20025;-78
2022/09/15 05:31:19;;;;;;;2.95;1.60;;;13.80;99.90;;;;;;5027223;28;20025;-78
2022/09/15 05:33:47;;;;;;;2.63;1.23;;;13.80;99.90;;;;;;5027071;28;20057;-79
2022/09/15 05:36:14;;;;;;;3.97;1.80;;;13.90;99.90;;;;;;5007692;28;20018;-79
2022/09/15 05:38:40;;;;;;;4.20;2.30;;;13.90;99.90;;;;;;5008815;28;20034;-79
2022/09/15 05:41:09;;;;;;;4.28;1.98;;;13.80;99.90;;;;;;5008935;28;20029;-78
2022/09/15 05:43:36;;;;;;;3.45;1.80;;;13.80;99.90;;;;;;5011241;28;20454;-78
2022/09/15 05:46:03;;;;;;;3.95;1.33;;;13.90;99.90;;;;;;5010910;28;20033;-80
2022/09/15 05:48:29;;;;;;;3.20;1.60;;;14.00;99.90;;;;;;5024765;28;20029;-78
2022/09/15 05:50:55;;;;;;;3.05;1.42;;;14.00;99.90;;;;;;5009686;28;20363;-79
2022/09/15 05:53:22;;;;;;;2.92;1.40;;;14.00;99.90;;;;;;5006718;28;20084;-80
2022/09/15 05:55:52;;;;;;;2.35;1.20;;;14.00;99.90;;;;;;5026244;28;20022;-81
2022/09/15 05:58:18;;;;;;;2.30;1.17;;;14.00;99.90;;;;;;5006333;28;20470;-78
2022/09/15 06:00:44;;;;;;;4.88;1.58;;;14.00;99.90;;;;;;5008686;28;20021;-79
2022/09/15 06:03:15;;;;;;;3.25;1.73;;;14.00;99.90;;;;;;5026607;28;20037;-78
2022/09/15 06:05:41;;;;;;;3.78;1.98;;;13.90;99.90;;;;;;5007599;28;20030;-81
2022/09/15 06:08:07;;;;;;;5.15;1.80;;;13.90;99.90;;;;;;5001274;28;20120;-78
2022/09/15 06:10:32;;;;;;;6.55;2.42;;;13.90;99.90;;;;;;5007821;28;20363;-80
2022/09/15 06:12:58;;;;;;;4.22;2.83;;;13.90;99.90;;;;;;5009548;28;20460;-78
2022/09/15 06:15:24;;;;;;;6.80;2.90;;;13.90;99.90;;;;;;5023902;28;20449;-78
2022/09/15 06:17:50;;;;;;;3.75;2.17;;;13.90;99.90;;;;;;5007740;28;20030;-79
2022/09/15 06:20:17;;;;;;;3.60;1.92;;;14.00;99.90;;;;;;5023702;28;20026;-78
2022/09/15 06:22:44;;;;;;;2.47;1.20;;;14.00;99.90;;;;;;5007374;28;20470;-78
2022/09/15 06:25:12;;;;;;;3.55;1.30;;;14.10;99.90;;;;;;5000901;28;20021;-77
2022/09/15 06:27:41;;;;;;;3.42;1.20;;;14.10;99.90;;;;;;5026322;28;20048;-79
2022/09/15 06:30:09;;;;;;;3.20;1.20;;;14.20;99.90;;;;;;5008140;28;20040;-80
2022/09/15 06:32:35;;;;;;;5.35;2.45;;;14.20;99.90;;;;;;5024846;28;20021;-76
2022/09/15 06:35:05;;;;;;;4.45;2.60;;;14.20;99.90;;;;;;5025286;28;20066;-77
2022/09/15 06:37:32;;;;;;;3.88;1.38;;;14.20;99.90;;;;;;5022893;28;20378;-80
2022/09/15 06:39:58;;;;;;;5.57;3.45;;;14.30;99.90;;;;;;5025669;28;20025;-77
2022/09/15 06:42:23;;;;;;;6.13;4.22;;;14.40;99.90;;;;;;5024357;28;20025;-78
2022/09/15 06:44:49;;;;;;;5.05;3.35;;;14.50;99.90;;;;;;5007233;28;20037;-78
2022/09/15 06:47:15;;;;;;;6.70;3.28;;;14.60;99.90;;;;;;5005766;28;20041;-78
2022/09/15 06:49:41;;;;;;;5.95;2.80;;;14.60;99.90;;;;;;5023179;28;20041;-78
2022/09/15 06:52:07;;;;;;;5.53;2.78;;;14.70;99.90;;;;;;5007088;28;20025;-80
2022/09/15 06:54:33;;;;;;;3.90;2.25;;;14.70;99.90;;;;;;4989482;28;20032;-79
2022/09/15 06:56:59;;;;;;;4.40;1.83;;;14.70;99.90;;;;;;5024843;28;20044;-81
2022/09/15 06:59:25;;;;;;;4.70;2.03;;;14.70;99.90;;;;;;5006129;28;20553;-79
2022/09/15 07:01:55;;;;;;;4.75;2.00;;;14.80;99.90;;;;;;4994700;28;20100;-78
2022/09/15 07:04:21;;;;;;;3.15;1.63;;;14.70;99.90;;;;;;5006268;28;20037;-78
2022/09/15 07:06:47;;;;;;;3.13;0.75;;;14.80;99.90;;;;;;5004836;28;20125;-80
2022/09/15 07:09:13;;;;;;;3.78;1.38;;;14.80;99.90;;;;;;5004985;28;20037;-78
2022/09/15 07:11:39;;;;;;;5.53;1.67;;;14.80;99.90;;;;;;5025569;28;20053;-81
2022/09/15 07:14:05;;;;;;;4.38;1.40;;;14.80;99.90;;;;;;4995131;28;20124;-78
2022/09/15 07:16:31;;;;;;;4.82;1.83;;;14.80;99.90;;;;;;5024659;28;20107;-80
2022/09/15 07:19:00;;;;;;;3.88;1.15;;;14.90;99.90;;;;;;5023823;28;20485;-77
2022/09/15 07:21:25;;;;;;;2.95;0.90;;;15.00;99.90;;;;;;5024224;28;20045;-78
2022/09/15 07:23:51;;;;;;;3.78;0.70;;;15.10;99.90;;;;;;5006876;28;20088;-81
2022/09/15 07:26:23;;;;;;;5.30;0.80;;;15.20;99.90;;;;;;5023516;28;20025;-78
2022/09/15 07:29:00;;;;;;;4.57;0.90;;;15.10;99.90;;;;;;5022905;28;20041;-80
2022/09/15 07:31:29;;;;;;;4.18;0.93;;;15.20;99.90;;;;;;5022303;28;20064;-79
2022/09/15 07:33:54;;;;;;;3.80;1.00;;;15.20;99.90;;;;;;5006679;28;20036;-79
2022/09/15 07:36:20;;;;;;;3.55;0.82;;;15.30;99.90;;;;;;5016633;28;20018;-78
2022/09/15 07:38:47;;;;;;;2.65;0.80;;;15.40;99.90;;;;;;5017123;28;20025;-80
2022/09/15 07:41:20;;;;;;;3.42;0.57;;;15.30;99.90;;;;;;5006284;28;20151;-80
2022/09/15 07:43:52;;;;;;;3.25;0.63;;;15.40;99.90;;;;;;5022494;28;20543;-78
2022/09/15 07:46:18;;;;;;;2.88;0.50;;;15.50;99.90;;;;;;5000593;28;20275;-80
2022/09/15 07:48:45;;;;;;;4.93;1.05;;;15.60;99.90;;;;;;5006234;28;20029;-79
2022/09/15 07:51:11;;;;;;;4.35;1.10;;;15.50;99.90;;;;;;5006137;28;20048;-78
2022/09/15 07:53:37;;;;;;;3.38;0.80;;;15.60;99.90;;;;;;5005065;28;20053;-80
2022/09/15 07:56:03;;;;;;;4.53;0.65;;;15.80;99.90;;;;;;5009884;28;20542;-80
2022/09/15 07:58:28;;;;;;;3.47;0.60;;;15.80;99.90;;;;;;5005176;28;20494;-81
2022/09/15 08:01:03;;;;;;;2.53;0.60;;;15.80;99.90;;;;;;5004813;28;20053;-81
2022/09/15 08:03:29;;;;;;;5.97;0.68;;;15.80;99.90;;;;;;5023657;28;20045;-79
2022/09/15 08:06:02;;;;;;;4.85;0.50;;;15.90;99.90;;;;;;5001999;28;20022;-80
2022/09/15 08:08:28;;;;;;;4.45;0.50;;;15.90;99.90;;;;;;5003378;28;20029;-79
2022/09/15 08:10:54;;;;;;;3.70;0.50;;;15.90;99.90;;;;;;5021677;28;20037;-79
2022/09/15 08:13:20;;;;;;;4.00;0.50;;;16.00;99.90;;;;;;5008257;28;20037;-79
2022/09/15 08:15:47;;;;;;;3.97;0.57;;;16.10;99.90;;;;;;5023667;28;20080;-80
2022/09/15 08:18:13;;;;;;;7.30;0.55;;;16.20;99.90;;;;;;5003972;28;20386;-78
2022/09/15 08:20:40;;;;;;;2.75;0.40;;;16.20;99.90;;;;;;5023084;28;20113;-79
2022/09/15 08:23:06;;;;;;;2.72;0.30;;;16.20;99.90;;;;;;4990819;28;20045;-78
2022/09/15 08:25:32;;;;;;;4.10;0.30;;;16.00;99.90;;;;;;5004436;28;20379;-80
2022/09/15 08:27:58;;;;;;;3.72;0.40;;;15.90;99.90;;;;;;4988446;28;20132;-82
2022/09/15 08:30:25;;;;;;;4.68;0.35;;;15.70;99.90;;;;;;5006486;28;20028;-80
2022/09/15 08:32:51;;;;;;;3.30;0.32;;;15.70;99.90;;;;;;5023414;28;20052;-79
2022/09/15 08:35:17;;;;;;;2.20;0.30;;;15.70;99.90;;;;;;4985761;28;20044;-80
2022/09/15 08:37:43;;;;;;;1.90;0.30;;;15.70;99.90;;;;;;5024632;28;20060;-79
2022/09/15 08:40:20;;;;;;;3.83;0.30;;;15.70;99.90;;;;;;5002554;28;20520;-79
2022/09/15 08:42:49;;;;;;;2.95;0.20;;;15.60;99.90;;;;;;5023328;28;20068;-80
2022/09/15 08:45:29;;;;;;;3.28;0.43;;;15.70;99.90;;;;;;5021471;28;20030;-80
2022/09/15 08:48:02;;;;;;;1.40;0.20;;;15.60;99.90;;;;;;4984835;28;20025;-79
2022/09/15 08:50:41;;;;;;;2.20;0.20;;;15.80;99.90;;;;;;5022090;28;20029;-80
2022/09/15 08:53:14;;;;;;;2.28;0.20;;;15.90;99.90;;;;;;5003186;28;20022;-78
2022/09/15 08:55:53;;;;;;;2.70;0.30;;;15.90;99.90;;;;;;5020861;28;20385;-77
2022/09/15 08:58:27;;;;;;;1.95;0.15;;;16.00;99.90;;;;;;5020397;28;20049;-78
2022/09/15 09:01:27;;;;;;;1.95;0.20;;;16.20;99.90;;;;;;5040684;28;20474;-80
2022/09/15 09:04:20;;;;;;;4.88;0.30;;;16.20;99.90;;;;;;5028514;28;20104;-78
2022/09/15 09:07:07;;;;;;;2.55;0.52;;;16.30;99.90;;;;;;5027838;28;20029;-81
2022/09/15 09:10:01;;;;;;;3.10;0.20;;;16.30;99.90;;;;;;5024596;28;20036;-79
2022/09/15 09:12:35;;;;;;;3.92;0.57;;;16.30;99.90;;;;;;5023475;28;20050;-81
2022/09/15 09:15:18;;;;;;;5.20;0.40;;;16.30;99.90;;;;;;5023079;28;20025;-77
2022/09/15 09:18:06;;;;;;;2.83;0.30;;;16.30;99.90;;;;;;5023760;28;20034;-81
2022/09/15 09:20:55;;;;;;;2.13;0.20;;;16.30;99.90;;;;;;5026176;28;20042;-79
2022/09/15 09:23:27;;;;;;;2.78;0.30;;;16.40;99.90;;;;;;4991724;28;20058;-79
2022/09/15 09:25:54;;;;;;;2.22;0.32;;;16.50;99.90;;;;;;4993682;28;20053;-80
2022/09/15 09:28:34;;;;;;;4.93;0.40;;;16.60;99.90;;;;;;5010319;28;20474;-79
2022/09/15 09:31:06;;;;;;;1.75;0.25;;;16.70;99.90;;;;;;5026114;28;20026;-79
2022/09/15 09:33:48;;;;;;;3.00;0.50;;;16.70;99.90;;;;;;5025870;28;20037;-80
2022/09/15 09:36:14;;;;;;;2.63;0.20;;;16.80;99.90;;;;;;5007630;28;20414;-81
2022/09/15 09:38:45;;;;;;;4.10;0.40;;;16.80;99.90;;;;;;5027048;28;20132;-80
2022/09/15 09:41:22;;;;;;;2.63;0.17;;;16.80;99.90;;;;;;5006315;28;20499;-79
2022/09/15 09:43:48;;;;;;;2.80;0.17;;;16.70;99.90;;;;;;5009458;28;20520;-78
2022/09/15 09:46:16;;;;;;;3.00;0.28;;;16.80;99.90;;;;;;5025455;28;20029;-80
2022/09/15 09:48:55;;;;;;;4.60;0.20;;;16.90;99.90;;;;;;5008708;28;20421;-80
2022/09/15 09:51:30;;;;;;;2.25;0.20;;;16.90;99.90;;;;;;5024706;28;20041;-79
2022/09/15 09:53:55;;;;;;;1.10;0.10;;;16.90;99.90;;;;;;5008093;28;20116;-79
2022/09/15 09:56:24;;;;;;;2.47;0.20;;;17.00;99.90;;;;;;5020683;28;20517;-79
2022/09/15 09:58:50;;;;;;;2.70;0.20;;;17.00;99.90;;;;;;5008928;28;20033;-79
2022/09/15 10:01:18;;;;;;;2.40;0.20;;;17.00;99.90;;;;;;5023832;28;20116;-79
2022/09/15 10:03:44;;;;;;;1.45;0.10;;;17.10;99.90;;;;;;5026134;28;20512;-80
2022/09/15 10:06:21;;;;;;;2.90;0.20;;;17.20;99.90;;;;;;5007116;28;20041;-80
2022/09/15 10:08:56;;;;;;;1.30;0.10;;;17.00;99.90;;;;;;5006933;28;20029;-82
2022/09/15 10:11:38;;;;;;;2.95;0.20;;;16.90;99.90;;;;;;5003722;28;20383;-80
2022/09/15 10:14:04;;;;;;;3.13;0.20;;;17.10;99.90;;;;;;5025923;28;20359;-81
2022/09/15 10:16:31;;;;;;;2.25;0.30;;;17.10;99.90;;;;;;5006697;28;20416;-78
2022/09/15 10:18:57;;;;;;;1.27;0.20;;;17.30;99.90;;;;;;5008091;28;20025;-80
2022/09/15 10:21:24;;;;;;;1.58;0.20;;;17.40;99.90;;;;;;5005885;28;20116;-81
2022/09/15 10:23:50;;;;;;;3.38;0.20;;;17.50;99.90;;;;;;5016484;28;20498;-80
2022/09/15 10:26:20;;;;;;;3.58;0.20;;;17.50;99.90;;;;;;5023397;28;20029;-79
2022/09/15 10:29:10;;;;;;;1.65;0.10;;;17.40;99.90;;;;;;5024748;28;20051;-82
2022/09/15 10:31:36;;;;;;;1.83;0.10;;;17.20;99.90;;;;;;4984561;28;20034;-80
2022/09/15 10:34:31;;;;;;;2.60;0.10;;;17.20;99.90;;;;;;5007883;28;20466;-78
2022/09/15 10:37:26;;;;;;;2.20;0.20;;;17.20;99.90;;;;;;5005617;28;20022;-80
2022/09/15 10:39:58;;;;;;;2.65;0.20;;;17.20;99.90;;;;;;4980075;28;20069;-78
2022/09/15 10:42:39;;;;;;;3.10;0.10;;;17.20;99.90;;;;;;5022946;28;20084;-79
2022/09/15 10:45:16;;;;;;;2.55;0.20;;;17.10;99.90;;;;;;5007152;28;20371;-82
2022/09/15 10:48:07;;;;;;;3.08;0.20;;;17.00;99.90;;;;;;5023423;28;20025;-81
2022/09/15 10:50:45;;;;;;;2.85;0.10;;;16.80;99.90;;;;;;5026450;28;20108;-79
2022/09/15 10:53:41;;;;;;;2.05;0.20;;;16.70;99.90;;;;;;5005957;28;20025;-79
2022/09/15 10:56:28;;;;;;;1.83;0.10;;;16.70;99.90;;;;;;5004509;28;20033;-80
2022/09/15 10:58:59;;;;;;;3.60;0.10;;;16.70;99.90;;;;;;5004861;28;20033;-78
2022/09/15 11:01:28;;;;;;;2.70;0.38;;;16.50;99.90;;;;;;5023638;28;20474;-79
2022/09/15 11:04:10;;;;;;;2.22;0.20;;;16.40;99.90;;;;;;5006208;28;20045;-81
2022/09/15 11:07:05;;;;;;;3.28;0.20;;;16.10;99.90;;;;;;5025141;28;20490;-84
2022/09/15 11:09:41;;;;;;;3.72;0.20;;;15.70;99.90;;;;;;5025814;28;20053;-81
2022/09/15 11:12:33;;;;;;;3.47;0.10;;;15.60;99.90;;;;;;5021695;28;20107;-81
2022/09/15 11:15:18;;;;;;;3.40;0.10;;;15.50;99.90;;;;;;5022378;28;20036;-78
2022/09/15 11:17:58;;;;;;;2.13;0.10;;;15.60;99.90;;;;;;5005785;28;20041;-84
2022/09/15 11:20:54;;;;;;;1.05;0.20;;;15.80;99.90;;;;;;5005163;28;20069;-81
2022/09/15 11:23:32;;;;;;;1.85;0.30;;;16.00;99.90;;;;;;5005224;28;20044;-81
2022/09/15 11:26:05;;;;;;;1.80;0.20;;;16.20;99.90;;;;;;5024681;28;20032;-80
2022/09/15 11:28:39;;;;;;;2.35;0.20;;;16.50;99.90;;;;;;4987605;28;20124;-81
2022/09/15 11:31:37;;;;;;;2.90;0.10;;;16.50;99.90;;;;;;5024344;28;20488;-81
2022/09/15 11:34:20;;;;;;;2.10;0.10;;;16.60;99.90;;;;;;5005222;28;20026;-80
2022/09/15 11:37:11;;;;;;;1.85;0.10;;;16.70;99.90;;;;;;5004008;28;20056;-82
2022/09/15 11:39:55;;;;;;;1.40;0.10;;;16.60;99.90;;;;;;4988061;28;20423;-78
2022/09/15 11:42:44;;;;;;;1.70;0.15;;;16.70;99.90;;;;;;5004797;28;20043;-80
2022/09/15 11:45:24;;;;;;;2.28;0.20;;;16.80;99.90;;;;;;5020067;28;20137;-78
2022/09/15 11:47:55;;;;;;;0.88;0.10;;;16.90;99.90;;;;;;5021782;28;20036;-80
2022/09/15 11:50:32;;;;;;;1.95;0.10;;;17.00;99.90;;;;;;5023597;28;20025;-79
2022/09/15 11:53:08;;;;;;;1.25;0.10;;;17.00;99.90;;;;;;4994433;28;20049;-81
2022/09/15 11:56:10;;;;;;;1.33;0.10;;;17.10;99.90;;;;;;5023051;28;20449;-82
2022/09/15 11:59:08;;;;;;;1.77;0.20;;;17.10;99.90;;;;;;4992949;28;20041;-79
2022/09/15 12:01:45;;;;;;;4.32;0.30;;;17.10;99.90;;;;;;4993598;28;20068;-79
2022/09/15 12:04:24;;;;;;;2.35;0.10;;;17.10;99.90;;;;;;5006232;28;20510;-79
2022/09/15 12:07:04;;;;;;;3.30;0.30;;;17.40;99.90;;;;;;5005204;28;20315;-81
2022/09/15 12:09:30;;;;;;;1.77;0.10;;;17.60;99.90;;;;;;5024388;28;20040;-80
2022/09/15 12:12:00;;;;;;;2.13;0.20;;;17.50;99.90;;;;;;5005867;28;20046;-80
2022/09/15 12:14:31;;;;;;;;;;;17.70;99.90;;;;;;5023763;28;20060;-78
2022/09/15 12:16:58;;;;;;;2.70;0.10;;;17.90;99.90;;;;;;5025290;28;19977;-80
2022/09/15 12:19:32;;;;;;;2.42;0.10;;;18.40;99.90;;;;;;5021432;28;20029;-79
2022/09/15 12:22:16;;;;;;;1.85;0.13;;;18.40;99.90;;;;;;5023011;28;20029;-80
2022/09/15 12:24:44;;;;;;;4.20;0.25;;;18.20;99.90;;;;;;5005952;28;20046;-80
2022/09/15 12:27:18;;;;;;;2.30;0.20;;;18.10;99.90;;;;;;5021558;28;20041;-78
2022/09/15 12:29:49;;;;;;;4.03;0.20;;;17.90;99.90;;;;;;5021476;28;20033;-78
2022/09/15 12:32:32;;;;;;;2.53;0.17;;;18.10;99.90;;;;;;5021412;28;20059;-80
2022/09/15 12:35:16;;;;;;;2.15;0.22;;;18.30;99.90;;;;;;5003896;28;20032;-80
2022/09/15 12:37:47;;;;;;;3.05;0.30;;;18.30;99.90;;;;;;5023358;28;20029;-79
2022/09/15 12:40:33;;;;;;;3.28;0.50;;;18.60;99.90;;;;;;4988367;28;20643;-81
2022/09/15 12:43:16;;;;;;;2.78;0.20;;;19.00;99.90;;;;;;5015700;28;20038;-79
2022/09/15 12:45:52;;;;;;;4.18;0.20;;;19.00;99.90;;;;;;5005824;28;20386;-80
2022/09/15 12:48:22;;;;;;;2.38;0.20;;;19.40;99.90;;;;;;5021537;28;20064;-82
2022/09/15 12:50:54;;;;;;;2.22;0.20;;;19.20;99.90;;;;;;5022683;28;20036;-80
2022/09/15 12:53:29;;;;;;;1.92;0.25;;;18.40;99.90;;;;;;5021577;28;20040;-81
2022/09/15 12:56:05;;;;;;;2.38;0.20;;;18.20;99.90;;;;;;5004834;28;20387;-80
2022/09/15 12:58:48;;;;;;;1.10;0.20;;;18.00;99.90;;;;;;5021772;28;20030;-79
2022/09/15 13:01:25;;;;;;;2.35;0.25;;;17.80;99.90;;;;;;5024280;28;20057;-78
2022/09/15 13:03:56;;;;;;;4.30;0.20;;;17.70;99.90;;;;;;5005105;28;20113;-81
2022/09/15 13:06:32;;;;;;;2.90;0.40;;;17.60;99.90;;;;;;5004899;28;20022;-79
2022/09/15 13:09:02;;;;;;;1.45;0.20;;;17.50;99.90;;;;;;5004763;28;20036;-81
2022/09/15 13:11:35;;;;;;;2.70;0.20;;;17.40;99.90;;;;;;5033648;28;20504;-81